AirNav   Textron
 
 547 users online  

10NE St Joseph Hospital Heliport
Omaha, Nebraska, USA

GOING TO OMAHA?


FAA INFORMATION EFFECTIVE 20 JULY 2017

Location

FAA Identifier: 10NE
Lat/Long: 41-15-55.9940N / 095-57-16.0520W
41-15.933233N / 095-57.267533W
41.2655539 / -95.9544589
(estimated)
Elevation: 1130 ft. / 344 m (estimated)
Variation: 06E (1985)
Time zone: UTC -5 (UTC -6 during Standard Time)
Zip code: 68131

Heliport Operations

Heliport use: Private use, MEDICAL.
Activation date: 05/1979
Control tower: no
ARTCC: MINNEAPOLIS CENTER
FSS: COLUMBUS FLIGHT SERVICE STATION
Attendance: UNATNDD
Wind indicator: yes
Segmented circle: no
Beacon: white-green-yellow (heliport)
Operates sunset to sunrise.

Heliport Communications

UNICOM: 123.05
WX ASOS at OMA (4 nm NE): PHONE 402-344-0324
WX AWOS-3 at MLE (8 nm SW): 118.25 (402-895-6778)
WX AWOS-3 at CBF (9 nm E): 126.575 (712-323-1542)
WX AWOS-3 at BTA (11 nm NW): 120.225 (402-426-0448)
WX AWOS-3 at PMV (19 nm S): 118.975 (402-298-7524)

Nearby radio navigation aids

VOR radial/distance  VOR name  Freq  Var
OVRr293/11.5OMAHA VORTAC116.3008E
SCBr118/36.5SCRIBNER VOR/DME111.0006E

 
NDB name  Hdg/Dist  Freq  Var  ID
RIKKY289/6.742605EEN . -.
PLATTSMOUTH349/19.432905EPMV .--. -- ...-
WAHOO081/29.140006EAHQ .- .... --.-
SHENANDOAH316/39.541105ESDA ... -.. .-
NEBRASKA CITY349/39.834705EAFK .- ..-. -.-

Heliport Services

Fuel available: A
Airframe service: NONE
Powerplant service: NONE
Bottled oxygen: NONE
Bulk oxygen: NONE

Runway Information

Helipad H1

Dimensions: 67 x 60 ft. / 20 x 18 m
Surface: concrete
Runway edge lights: PERIMETER LGTS.
Latitude: 41-15.933233N
Longitude: 095-57.267533W
Elevation: 1130.0 ft.
Traffic pattern: leftleft

Heliport Ownership and Management from official FAA records

Ownership: Privately-owned
Owner: SAINT JOSEPH HOSPITAL
601 N. 30TH ST
OMAHA, NE 68131
Phone 402-449-4588
Manager: THERESA GREGG
601 N 30TH ST
OMAHA, NE 68131
Phone 402-449-4789

Heliport Operational Statistics

Aircraft based on the field: 1
Helicopters: 1
    

Additional Remarks

A30A-H1 TFC PATTERN 270 DEG CLOCKWISE TO 090 DEG.

Instrument Procedures

There are no published instrument procedures at 10NE.

Some nearby airports with instrument procedures:

KOMA - Eppley Airfield (4 nm NE)
KMLE - Millard Airport (8 nm SW)
KCBF - Council Bluffs Municipal Airport (9 nm E)
KOFF - Offutt Air Force Base (9 nm S)
KBTA - Blair Municipal Airport (11 nm NW)
KPMV - Plattsmouth Municipal Airport (19 nm S)
 
Loc | Ops | Rwys | IFR | FBO | Links
Com | Nav | Svcs | Stats | Notes

Silverhawk Aviation, Inc.
AirBoss

 
Area around 10NE (St Joseph Hospital Heliport)
 
Road maps at: MapQuest Bing Google
 
Aerial photo
No photo
 
Sectional chart

 
Airport distance calculator
Flying to St Joseph Hospital Heliport? Find the distance to fly.

From to 10NE

Sunrise and sunset
Times for 22-Jul-2017
 Local
(UTC-5)
 Zulu
(UTC)
Morning civil twilight05:3910:39
Sunrise06:1111:11
Sunset20:5001:50
Evening civil twilight21:2202:22

Current date and time
Zulu (UTC)  23-Jul-2017 04:43:42
Local (UTC-5)  22-Jul-2017 23:43:42
 
METAR
KOMA 
4nm NE 
230352Z 02008KT 10SM FEW110 SCT250 25/22 A2990 RMK AO2 SLP115 T02500222
KMLE 
8nm SW 
230415Z AUTO 00000KT 10SM CLR 26/23 A2992 RMK AO2 T02590233
KCBF 
8nm E 
230415Z AUTO 00000KT 10SM CLR 24/24 A2992 RMK AO2
KOFF 
9nm S 
222256Z AUTO 36007KT 10SM FEW160 31/24 A2986 RMK AO2 SLP104 T03070238 $
KBTA 
11nm NW 
230415Z AUTO 33006KT 7SM CLR 23/22 A2992 RMK AO2 T02290220
KPMV 
19nm S 
230415Z AUTO 00000KT 10SM CLR 25/22 A2991 RMK AO2 T02510220
TAF
KOMA 
4nm NE 
221720Z 2218/2318 36009KT P6SM SCT250 FM230200 VRB03KT P6SM BKN250
KOFF 
9nm S 
221800Z 2218/2324 35012KT 9999 FEW150 QNH2984INS BECMG 2308/2309 28006KT 4800 BR BKN150 QNH2990INS BECMG 2313/2314 32009KT 9999 NSW FEW250 QNH2993INS TX37/2220Z TN21/2312Z
NOTAMs
Click for the latest NOTAMs
NOTAMs are issued by the DoD/FAA and will open in a separate window not controlled by AirNav.

 

 
 

Would you like to see your business listed on this page?

 If your business provides an interesting product or service to pilots, flight crews, aircraft, or users of the St Joseph Hospital Heliport, you should consider listing it here.  To start the listing process, click on the button below
 
Add a business
 

Other Pages about St Joseph Hospital Heliport

Update a link
 
Copyright © AirNav, LLC. All rights reserved. Privacy Policy  Contact